createdAt,value
2017-01-29T00:00:04.824Z,0
2017-01-29T00:05:01.026Z,0
2017-01-29T00:09:57.658Z,0
2017-01-29T00:14:54.246Z,0
2017-01-29T00:19:50.649Z,0
2017-01-29T00:24:47.263Z,0
2017-01-29T00:29:43.604Z,0
2017-01-29T00:34:40.025Z,0
2017-01-29T00:39:36.446Z,0
2017-01-29T00:44:32.742Z,0
2017-01-29T00:49:29.300Z,0
2017-01-29T00:54:25.780Z,0
2017-01-29T00:59:21.830Z,0
2017-01-29T01:04:18.454Z,0
2017-01-29T01:09:15.137Z,0
2017-01-29T01:14:11.667Z,0
2017-01-29T01:19:08.216Z,0
2017-01-29T01:24:04.623Z,0
2017-01-29T01:29:01.263Z,0
2017-01-29T01:33:57.660Z,0
2017-01-29T01:38:54.165Z,0
2017-01-29T01:43:50.126Z,0
2017-01-29T01:48:46.592Z,0
2017-01-29T01:53:43.385Z,0
2017-01-29T01:58:39.791Z,0
2017-01-29T02:03:36.732Z,0
2017-01-29T02:08:33.128Z,0
2017-01-29T02:13:30.171Z,0
2017-01-29T02:18:27.511Z,0
2017-01-29T02:23:24.291Z,0
2017-01-29T02:28:20.971Z,0
2017-01-29T02:33:17.310Z,0
2017-01-29T02:38:13.931Z,0
2017-01-29T02:43:10.369Z,0
2017-01-29T02:48:06.896Z,0
2017-01-29T02:53:03.435Z,0
2017-01-29T02:57:59.771Z,0
2017-01-29T03:02:56.238Z,0
2017-01-29T03:07:52.771Z,0
2017-01-29T03:12:49.708Z,0
2017-01-29T03:17:46.420Z,0
2017-01-29T03:22:42.955Z,0
2017-01-29T03:27:40.269Z,0
2017-01-29T03:32:36.734Z,0
2017-01-29T03:37:33.329Z,0
2017-01-29T03:42:29.879Z,0
2017-01-29T03:47:26.859Z,0
2017-01-29T03:52:22.824Z,0
2017-01-29T03:57:19.505Z,0
2017-01-29T04:02:16.116Z,0
2017-01-29T04:07:12.424Z,0
2017-01-29T04:12:08.945Z,0
2017-01-29T04:17:05.265Z,0
2017-01-29T04:22:02.468Z,0
2017-01-29T04:26:58.884Z,0
2017-01-29T04:31:55.223Z,0
2017-01-29T04:36:52.176Z,0
2017-01-29T04:41:48.939Z,0
2017-01-29T04:46:45.703Z,0
2017-01-29T04:51:42.246Z,0
2017-01-29T04:56:38.802Z,0
2017-01-29T05:01:35.143Z,0
2017-01-29T05:06:31.548Z,0
2017-01-29T05:11:27.591Z,0
2017-01-29T05:16:23.916Z,0
2017-01-29T05:21:20.323Z,0
2017-01-29T05:26:16.641Z,0
2017-01-29T05:31:13.859Z,0
2017-01-29T05:36:10.301Z,0
2017-01-29T05:41:06.640Z,0
2017-01-29T05:46:03.156Z,0
2017-01-29T05:50:59.461Z,0
2017-01-29T05:55:55.961Z,0
2017-01-29T06:00:52.203Z,0
2017-01-29T06:05:48.715Z,0
2017-01-29T06:10:44.993Z,0
2017-01-29T06:15:41.513Z,0
2017-01-29T06:20:38.019Z,0
2017-01-29T06:25:34.537Z,0
2017-01-29T06:30:31.196Z,0
2017-01-29T06:35:27.715Z,0
2017-01-29T06:40:24.420Z,0
2017-01-29T06:45:20.675Z,0
2017-01-29T06:50:17.311Z,0
2017-01-29T06:55:13.849Z,0
2017-01-29T07:00:10.509Z,0
2017-01-29T07:05:07.045Z,0
2017-01-29T07:10:04.593Z,0
2017-01-29T07:15:01.026Z,0
2017-01-29T07:19:57.543Z,0
2017-01-29T07:24:54.079Z,10
2017-01-29T07:29:50.577Z,15
2017-01-29T07:34:47.176Z,15
2017-01-29T07:39:44.513Z,15
2017-01-29T07:44:41.508Z,20
2017-01-29T07:49:37.940Z,20
2017-01-29T07:54:34.841Z,20
2017-01-29T07:59:31.989Z,25
2017-01-29T08:04:28.633Z,25
2017-01-29T08:09:24.842Z,20
2017-01-29T08:14:22.254Z,25
2017-01-29T08:19:18.751Z,30
2017-01-29T08:24:15.141Z,25
2017-01-29T08:29:11.479Z,25
2017-01-29T08:34:07.940Z,5
2017-01-29T08:39:04.469Z,10
2017-01-29T08:44:00.872Z,10
2017-01-29T08:48:57.920Z,15
2017-01-29T08:53:54.551Z,25
2017-01-29T08:58:50.982Z,35
2017-01-29T09:03:47.369Z,30
2017-01-29T09:08:43.856Z,20
2017-01-29T09:13:40.509Z,20
2017-01-29T09:18:37.551Z,25
2017-01-29T09:23:33.958Z,30
2017-01-29T09:28:30.539Z,55
2017-01-29T09:33:27.115Z,75
2017-01-29T09:38:23.631Z,70
2017-01-29T09:43:20.038Z,40
2017-01-29T09:48:16.554Z,75
2017-01-29T09:53:13.071Z,65
2017-01-29T09:58:09.619Z,80
2017-01-29T10:03:06.369Z,45
2017-01-29T10:08:02.704Z,40
2017-01-29T10:12:59.098Z,45
2017-01-29T10:17:55.478Z,45
2017-01-29T10:22:52.463Z,65
2017-01-29T10:27:49.293Z,85
2017-01-29T10:32:45.716Z,95
2017-01-29T10:37:42.212Z,115
2017-01-29T10:42:38.944Z,110
2017-01-29T10:47:37.621Z,150
2017-01-29T10:52:34.343Z,145
2017-01-29T10:57:31.504Z,105
2017-01-29T11:02:28.643Z,115
2017-01-29T11:07:25.270Z,90
2017-01-29T11:12:21.498Z,45
2017-01-29T11:17:17.915Z,55
2017-01-29T11:22:14.729Z,75
2017-01-29T11:27:11.881Z,90
2017-01-29T11:32:08.448Z,105
2017-01-29T11:37:05.006Z,110
2017-01-29T11:42:04.098Z,125
2017-01-29T11:47:00.212Z,260
2017-01-29T11:51:57.147Z,195
2017-01-29T11:56:54.444Z,180
2017-01-29T12:01:51.321Z,240
2017-01-29T12:06:49.409Z,160
2017-01-29T12:11:45.962Z,100
2017-01-29T12:16:42.042Z,160
2017-01-29T12:21:38.698Z,115
2017-01-29T12:26:35.071Z,125
2017-01-29T12:31:31.049Z,105
2017-01-29T12:36:27.942Z,115
2017-01-29T12:41:24.167Z,85
2017-01-29T12:46:20.620Z,80
2017-01-29T12:51:17.094Z,90
2017-01-29T12:56:13.788Z,85
2017-01-29T13:01:10.230Z,70
2017-01-29T13:06:06.714Z,70
2017-01-29T13:11:03.075Z,75
2017-01-29T13:16:00.353Z,85
2017-01-29T13:20:57.214Z,95
2017-01-29T13:25:53.709Z,70
2017-01-29T13:30:50.363Z,80
2017-01-29T13:35:47.041Z,60
2017-01-29T13:40:44.183Z,50
2017-01-29T13:45:40.542Z,60
2017-01-29T13:50:37.079Z,130
2017-01-29T13:55:33.864Z,115
2017-01-29T14:00:30.540Z,110
2017-01-29T14:05:28.041Z,115
2017-01-29T14:10:24.725Z,120
2017-01-29T14:15:21.138Z,110
2017-01-29T14:20:17.558Z,100
2017-01-29T14:25:14.031Z,110
2017-01-29T14:30:10.586Z,105
2017-01-29T14:35:07.378Z,105
2017-01-29T14:40:03.990Z,75
2017-01-29T14:44:59.980Z,55
2017-01-29T14:49:56.442Z,75
2017-01-29T14:54:53.033Z,75
2017-01-29T14:59:49.428Z,65
2017-01-29T15:04:45.361Z,60
2017-01-29T15:09:42.383Z,60
2017-01-29T15:14:39.868Z,60
2017-01-29T15:19:36.005Z,55
2017-01-29T15:24:32.625Z,55
2017-01-29T15:29:29.241Z,45
2017-01-29T15:34:26.152Z,40
2017-01-29T15:39:22.514Z,30
2017-01-29T15:44:20.112Z,30
2017-01-29T15:49:16.129Z,25
2017-01-29T15:54:12.764Z,20
2017-01-29T15:59:08.946Z,15
2017-01-29T16:04:06.117Z,10
2017-01-29T16:09:02.306Z,5
2017-01-29T16:13:58.647Z,0
2017-01-29T16:18:55.486Z,0
2017-01-29T16:23:51.967Z,0
2017-01-29T16:28:48.540Z,0
2017-01-29T16:33:45.007Z,0
2017-01-29T16:38:41.139Z,0
2017-01-29T16:43:37.715Z,0
2017-01-29T16:48:34.985Z,0
2017-01-29T16:53:31.211Z,0
2017-01-29T16:58:27.748Z,0
2017-01-29T17:03:24.332Z,0
2017-01-29T17:08:20.542Z,0
2017-01-29T17:13:17.449Z,0
2017-01-29T17:18:13.875Z,0
2017-01-29T17:23:09.895Z,0
2017-01-29T17:28:06.478Z,0
2017-01-29T17:33:02.965Z,0
2017-01-29T17:37:59.303Z,0
2017-01-29T17:42:55.852Z,0
2017-01-29T17:47:52.829Z,0
2017-01-29T17:52:49.283Z,0
2017-01-29T17:57:45.428Z,0
2017-01-29T18:02:41.923Z,0
2017-01-29T18:07:38.891Z,0
2017-01-29T18:12:34.864Z,0
2017-01-29T18:17:31.219Z,0
2017-01-29T18:22:28.460Z,0
2017-01-29T18:27:25.279Z,0
2017-01-29T18:37:22.275Z,0
2017-01-29T18:42:18.632Z,0
2017-01-29T18:47:14.780Z,0
2017-01-29T18:52:11.215Z,0
2017-01-29T18:57:07.394Z,0
2017-01-29T19:02:03.947Z,0
2017-01-29T19:07:03.429Z,0
2017-01-29T19:11:59.221Z,0
2017-01-29T19:16:55.470Z,0
2017-01-29T19:21:54.453Z,0
2017-01-29T19:26:50.807Z,0
2017-01-29T19:31:47.016Z,0
2017-01-29T19:36:43.259Z,0
2017-01-29T19:41:39.630Z,0
2017-01-29T19:46:36.074Z,0
2017-01-29T19:51:33.164Z,0
2017-01-29T19:56:29.554Z,0
2017-01-29T20:01:26.372Z,0
2017-01-29T20:06:22.883Z,0
2017-01-29T20:11:19.593Z,0
2017-01-29T20:16:15.895Z,0
2017-01-29T20:21:13.405Z,0
2017-01-29T20:26:09.616Z,0
2017-01-29T20:31:05.762Z,0
2017-01-29T20:36:02.103Z,0
2017-01-29T20:40:58.573Z,0
2017-01-29T20:45:55.072Z,0
2017-01-29T20:50:51.408Z,0
2017-01-29T20:55:47.322Z,0
2017-01-29T21:00:43.682Z,0
2017-01-29T21:05:40.183Z,0
2017-01-29T21:10:36.558Z,0
2017-01-29T21:15:32.723Z,0
2017-01-29T21:20:29.993Z,0
2017-01-29T21:25:26.453Z,0
2017-01-29T21:30:22.719Z,0
2017-01-29T21:35:20.032Z,0
2017-01-29T21:40:16.208Z,0
2017-01-29T21:45:12.784Z,0
2017-01-29T21:50:09.118Z,0
2017-01-29T21:55:05.447Z,0
2017-01-29T22:00:01.840Z,0
2017-01-29T22:04:58.369Z,0
2017-01-29T22:09:54.824Z,0
2017-01-29T22:14:51.207Z,0
2017-01-29T22:19:47.762Z,0
2017-01-29T22:24:44.184Z,0
2017-01-29T22:29:40.610Z,0
2017-01-29T22:34:36.898Z,0
2017-01-29T22:39:33.210Z,0
2017-01-29T22:44:30.042Z,0
2017-01-29T22:49:26.114Z,0
2017-01-29T22:54:23.375Z,0
2017-01-29T22:59:21.015Z,0
2017-01-29T23:04:17.025Z,0
2017-01-29T23:09:14.360Z,0
2017-01-29T23:14:10.714Z,0
2017-01-29T23:19:07.333Z,0
2017-01-29T23:24:04.879Z,0
2017-01-29T23:29:01.163Z,0
2017-01-29T23:33:57.682Z,0
2017-01-29T23:38:54.356Z,0
2017-01-29T23:43:50.790Z,0
2017-01-29T23:48:47.205Z,0
2017-01-29T23:53:43.604Z,0
2017-01-29T23:58:40.189Z,0
